sensor_id;sensor_type;location;lat;lon;timestamp;temperature;humidity
14122;DHT22;7139;48.114;11.442;2023-04-06T00:02:06;1.20;93.80
14122;DHT22;7139;48.114;11.442;2023-04-06T00:04:33;1.20;93.90
14122;DHT22;7139;48.114;11.442;2023-04-06T00:07:00;1.10;94.10
14122;DHT22;7139;48.114;11.442;2023-04-06T00:09:27;1.10;94.00
14122;DHT22;7139;48.114;11.442;2023-04-06T00:11:54;1.10;93.70
14122;DHT22;7139;48.114;11.442;2023-04-06T00:14:23;1.10;93.70
14122;DHT22;7139;48.114;11.442;2023-04-06T00:16:50;1.00;93.90
14122;DHT22;7139;48.114;11.442;2023-04-06T00:19:16;1.00;94.10
14122;DHT22;7139;48.114;11.442;2023-04-06T00:21:43;1.00;94.30
14122;DHT22;7139;48.114;11.442;2023-04-06T00:24:10;1.00;94.50
14122;DHT22;7139;48.114;11.442;2023-04-06T00:26:36;0.90;94.60
14122;DHT22;7139;48.114;11.442;2023-04-06T00:29:03;0.90;94.50
14122;DHT22;7139;48.114;11.442;2023-04-06T00:31:31;0.90;94.50
14122;DHT22;7139;48.114;11.442;2023-04-06T00:33:58;0.90;94.50
14122;DHT22;7139;48.114;11.442;2023-04-06T00:36:25;0.90;94.60
14122;DHT22;7139;48.114;11.442;2023-04-06T00:38:52;0.80;94.70
14122;DHT22;7139;48.114;11.442;2023-04-06T00:41:18;0.80;94.60
14122;DHT22;7139;48.114;11.442;2023-04-06T00:43:46;0.80;94.40
14122;DHT22;7139;48.114;11.442;2023-04-06T00:46:12;0.80;94.40
14122;DHT22;7139;48.114;11.442;2023-04-06T00:48:40;0.80;94.60
14122;DHT22;7139;48.114;11.442;2023-04-06T00:51:07;0.80;95.00
14122;DHT22;7139;48.114;11.442;2023-04-06T00:53:34;0.70;95.20
14122;DHT22;7139;48.114;11.442;2023-04-06T00:56:01;0.70;95.30
14122;DHT22;7139;48.114;11.442;2023-04-06T00:58:28;0.70;95.40
14122;DHT22;7139;48.114;11.442;2023-04-06T01:00:54;0.70;95.30
14122;DHT22;7139;48.114;11.442;2023-04-06T01:03:21;0.70;95.40
14122;DHT22;7139;48.114;11.442;2023-04-06T01:05:50;0.70;95.40
14122;DHT22;7139;48.114;11.442;2023-04-06T01:08:21;0.60;95.10
14122;DHT22;7139;48.114;11.442;2023-04-06T01:10:47;0.60;95.10
14122;DHT22;7139;48.114;11.442;2023-04-06T01:13:14;0.60;95.00
14122;DHT22;7139;48.114;11.442;2023-04-06T01:15:41;0.60;95.10
14122;DHT22;7139;48.114;11.442;2023-04-06T01:18:08;0.60;95.20
14122;DHT22;7139;48.114;11.442;2023-04-06T01:20:36;0.60;95.40
14122;DHT22;7139;48.114;11.442;2023-04-06T01:23:04;0.60;95.50
14122;DHT22;7139;48.114;11.442;2023-04-06T01:25:30;0.50;95.60
14122;DHT22;7139;48.114;11.442;2023-04-06T01:27:57;0.50;95.80
14122;DHT22;7139;48.114;11.442;2023-04-06T01:30:24;0.50;95.90
14122;DHT22;7139;48.114;11.442;2023-04-06T01:32:51;0.50;95.80
14122;DHT22;7139;48.114;11.442;2023-04-06T01:35:18;0.50;95.70
14122;DHT22;7139;48.114;11.442;2023-04-06T01:37:45;0.50;95.40
14122;DHT22;7139;48.114;11.442;2023-04-06T01:40:13;0.40;95.20
14122;DHT22;7139;48.114;11.442;2023-04-06T01:42:40;0.40;95.20
14122;DHT22;7139;48.114;11.442;2023-04-06T01:45:08;0.40;95.10
14122;DHT22;7139;48.114;11.442;2023-04-06T01:47:35;0.40;95.00
14122;DHT22;7139;48.114;11.442;2023-04-06T01:50:02;0.40;95.00
14122;DHT22;7139;48.114;11.442;2023-04-06T01:52:31;0.40;95.10
14122;DHT22;7139;48.114;11.442;2023-04-06T01:54:58;0.40;95.10
14122;DHT22;7139;48.114;11.442;2023-04-06T01:57:26;0.40;95.00
14122;DHT22;7139;48.114;11.442;2023-04-06T01:59:53;0.30;95.00
14122;DHT22;7139;48.114;11.442;2023-04-06T02:02:19;0.30;95.00
14122;DHT22;7139;48.114;11.442;2023-04-06T02:04:46;0.30;95.00
14122;DHT22;7139;48.114;11.442;2023-04-06T02:07:13;0.30;95.00
14122;DHT22;7139;48.114;11.442;2023-04-06T02:09:39;0.30;95.10
14122;DHT22;7139;48.114;11.442;2023-04-06T02:12:06;0.30;95.00
14122;DHT22;7139;48.114;11.442;2023-04-06T02:14:34;0.30;95.00
14122;DHT22;7139;48.114;11.442;2023-04-06T02:17:01;0.30;94.90
14122;DHT22;7139;48.114;11.442;2023-04-06T02:19:27;0.30;94.90
14122;DHT22;7139;48.114;11.442;2023-04-06T02:21:54;0.30;94.90
14122;DHT22;7139;48.114;11.442;2023-04-06T02:24:21;0.30;94.90
14122;DHT22;7139;48.114;11.442;2023-04-06T02:26:48;0.20;94.90
14122;DHT22;7139;48.114;11.442;2023-04-06T02:29:15;0.20;94.90
14122;DHT22;7139;48.114;11.442;2023-04-06T02:31:43;0.20;94.80
14122;DHT22;7139;48.114;11.442;2023-04-06T02:34:10;0.20;94.80
14122;DHT22;7139;48.114;11.442;2023-04-06T02:36:42;0.20;94.80
14122;DHT22;7139;48.114;11.442;2023-04-06T02:39:10;0.20;94.80
14122;DHT22;7139;48.114;11.442;2023-04-06T02:41:36;0.20;94.90
14122;DHT22;7139;48.114;11.442;2023-04-06T02:44:04;0.20;94.90
14122;DHT22;7139;48.114;11.442;2023-04-06T02:46:30;0.20;94.90
14122;DHT22;7139;48.114;11.442;2023-04-06T02:48:58;0.20;95.00
14122;DHT22;7139;48.114;11.442;2023-04-06T02:51:26;0.10;95.10
14122;DHT22;7139;48.114;11.442;2023-04-06T02:53:53;0.10;95.00
14122;DHT22;7139;48.114;11.442;2023-04-06T02:56:20;0.10;95.10
14122;DHT22;7139;48.114;11.442;2023-04-06T02:58:47;0.10;95.30
14122;DHT22;7139;48.114;11.442;2023-04-06T03:01:14;0.10;95.30
14122;DHT22;7139;48.114;11.442;2023-04-06T03:03:41;0.10;95.30
14122;DHT22;7139;48.114;11.442;2023-04-06T03:06:09;0.10;95.40
14122;DHT22;7139;48.114;11.442;2023-04-06T03:08:36;0.00;95.60
14122;DHT22;7139;48.114;11.442;2023-04-06T03:11:03;0.00;95.80
14122;DHT22;7139;48.114;11.442;2023-04-06T03:13:29;0.00;95.80
14122;DHT22;7139;48.114;11.442;2023-04-06T03:15:56;0.00;96.00
14122;DHT22;7139;48.114;11.442;2023-04-06T03:18:24;0.00;96.20
14122;DHT22;7139;48.114;11.442;2023-04-06T03:20:51;0.00;96.30
14122;DHT22;7139;48.114;11.442;2023-04-06T03:23:20;0.00;96.30
14122;DHT22;7139;48.114;11.442;2023-04-06T03:25:47;-0.10;96.10
14122;DHT22;7139;48.114;11.442;2023-04-06T03:28:14;-0.10;96.10
14122;DHT22;7139;48.114;11.442;2023-04-06T03:30:41;-0.20;96.10
14122;DHT22;7139;48.114;11.442;2023-04-06T03:33:08;-0.20;96.00
14122;DHT22;7139;48.114;11.442;2023-04-06T03:35:35;-0.20;96.00
14122;DHT22;7139;48.114;11.442;2023-04-06T03:38:02;-0.10;96.10
14122;DHT22;7139;48.114;11.442;2023-04-06T03:40:30;-0.10;96.10
14122;DHT22;7139;48.114;11.442;2023-04-06T03:42:57;-0.10;96.20
14122;DHT22;7139;48.114;11.442;2023-04-06T03:45:24;-0.10;96.20
14122;DHT22;7139;48.114;11.442;2023-04-06T03:47:50;-0.10;96.30
14122;DHT22;7139;48.114;11.442;2023-04-06T03:50:17;-0.10;96.30
14122;DHT22;7139;48.114;11.442;2023-04-06T03:52:44;-0.10;96.30
14122;DHT22;7139;48.114;11.442;2023-04-06T03:55:10;-0.10;96.40
14122;DHT22;7139;48.114;11.442;2023-04-06T03:57:38;-0.10;96.40
14122;DHT22;7139;48.114;11.442;2023-04-06T04:00:07;-0.20;96.40
14122;DHT22;7139;48.114;11.442;2023-04-06T04:02:34;-0.20;96.40
14122;DHT22;7139;48.114;11.442;2023-04-06T04:05:01;-0.20;96.50
14122;DHT22;7139;48.114;11.442;2023-04-06T04:07:28;-0.20;96.60
14122;DHT22;7139;48.114;11.442;2023-04-06T04:09:54;-0.20;96.70
14122;DHT22;7139;48.114;11.442;2023-04-06T04:12:21;-0.20;96.80
14122;DHT22;7139;48.114;11.442;2023-04-06T04:14:49;-0.20;96.80
14122;DHT22;7139;48.114;11.442;2023-04-06T04:17:16;-0.10;96.90
14122;DHT22;7139;48.114;11.442;2023-04-06T04:19:43;-0.20;96.80
14122;DHT22;7139;48.114;11.442;2023-04-06T04:22:09;-0.20;96.80
14122;DHT22;7139;48.114;11.442;2023-04-06T04:24:36;-0.20;96.80
14122;DHT22;7139;48.114;11.442;2023-04-06T04:27:03;-0.20;96.80
14122;DHT22;7139;48.114;11.442;2023-04-06T04:29:30;-0.20;96.80
14122;DHT22;7139;48.114;11.442;2023-04-06T04:31:58;-0.20;96.80
14122;DHT22;7139;48.114;11.442;2023-04-06T04:34:25;-0.20;96.80
14122;DHT22;7139;48.114;11.442;2023-04-06T04:36:51;-0.20;96.80
14122;DHT22;7139;48.114;11.442;2023-04-06T04:39:18;-0.20;96.90
14122;DHT22;7139;48.114;11.442;2023-04-06T04:41:45;-0.20;97.00
14122;DHT22;7139;48.114;11.442;2023-04-06T04:44:12;-0.30;97.00
14122;DHT22;7139;48.114;11.442;2023-04-06T04:46:39;-0.30;97.00
14122;DHT22;7139;48.114;11.442;2023-04-06T04:49:09;-0.20;97.00
14122;DHT22;7139;48.114;11.442;2023-04-06T04:51:35;-0.30;97.00
14122;DHT22;7139;48.114;11.442;2023-04-06T04:54:02;-0.20;97.10
14122;DHT22;7139;48.114;11.442;2023-04-06T04:56:29;-0.20;97.00
14122;DHT22;7139;48.114;11.442;2023-04-06T04:58:57;-0.20;97.00
14122;DHT22;7139;48.114;11.442;2023-04-06T05:01:24;-0.30;97.00
14122;DHT22;7139;48.114;11.442;2023-04-06T05:03:50;-0.30;97.20
14122;DHT22;7139;48.114;11.442;2023-04-06T05:06:18;-0.30;97.20
14122;DHT22;7139;48.114;11.442;2023-04-06T05:08:45;-0.30;97.00
14122;DHT22;7139;48.114;11.442;2023-04-06T05:11:12;-0.30;96.90
14122;DHT22;7139;48.114;11.442;2023-04-06T05:13:39;-0.30;96.90
14122;DHT22;7139;48.114;11.442;2023-04-06T05:16:06;-0.30;97.00
14122;DHT22;7139;48.114;11.442;2023-04-06T05:18:32;-0.20;97.10
14122;DHT22;7139;48.114;11.442;2023-04-06T05:20:59;-0.20;97.20
14122;DHT22;7139;48.114;11.442;2023-04-06T05:23:27;-0.20;97.20
14122;DHT22;7139;48.114;11.442;2023-04-06T05:25:54;-0.20;97.20
14122;DHT22;7139;48.114;11.442;2023-04-06T05:28:21;-0.20;97.30
14122;DHT22;7139;48.114;11.442;2023-04-06T05:30:48;-0.10;97.30
14122;DHT22;7139;48.114;11.442;2023-04-06T05:33:15;-0.10;97.30
14122;DHT22;7139;48.114;11.442;2023-04-06T05:35:41;-0.10;97.40
14122;DHT22;7139;48.114;11.442;2023-04-06T05:38:08;-0.10;97.40
14122;DHT22;7139;48.114;11.442;2023-04-06T05:40:37;-0.10;97.40
14122;DHT22;7139;48.114;11.442;2023-04-06T05:43:06;-0.10;97.40
14122;DHT22;7139;48.114;11.442;2023-04-06T05:45:33;0.00;97.40
14122;DHT22;7139;48.114;11.442;2023-04-06T05:48:00;0.00;97.40
14122;DHT22;7139;48.114;11.442;2023-04-06T05:50:27;0.00;97.50
14122;DHT22;7139;48.114;11.442;2023-04-06T05:52:54;0.00;97.50
14122;DHT22;7139;48.114;11.442;2023-04-06T05:55:20;0.00;97.50
14122;DHT22;7139;48.114;11.442;2023-04-06T05:57:48;0.10;97.60
14122;DHT22;7139;48.114;11.442;2023-04-06T06:00:16;0.10;97.60
14122;DHT22;7139;48.114;11.442;2023-04-06T06:02:42;0.10;97.60
14122;DHT22;7139;48.114;11.442;2023-04-06T06:05:09;0.20;97.60
14122;DHT22;7139;48.114;11.442;2023-04-06T06:07:36;0.20;97.70
14122;DHT22;7139;48.114;11.442;2023-04-06T06:10:03;0.30;97.70
14122;DHT22;7139;48.114;11.442;2023-04-06T06:12:30;0.30;97.60
14122;DHT22;7139;48.114;11.442;2023-04-06T06:14:58;0.40;97.70
14122;DHT22;7139;48.114;11.442;2023-04-06T06:17:25;0.40;97.70
14122;DHT22;7139;48.114;11.442;2023-04-06T06:19:52;0.50;97.60
14122;DHT22;7139;48.114;11.442;2023-04-06T06:22:19;0.50;97.60
14122;DHT22;7139;48.114;11.442;2023-04-06T06:24:46;0.60;97.60
14122;DHT22;7139;48.114;11.442;2023-04-06T06:27:12;0.70;97.70
14122;DHT22;7139;48.114;11.442;2023-04-06T06:29:39;0.70;97.60
14122;DHT22;7139;48.114;11.442;2023-04-06T06:32:07;0.80;97.60
14122;DHT22;7139;48.114;11.442;2023-04-06T06:34:35;0.80;97.50
14122;DHT22;7139;48.114;11.442;2023-04-06T06:37:01;0.90;97.40
14122;DHT22;7139;48.114;11.442;2023-04-06T06:39:28;1.00;97.40
14122;DHT22;7139;48.114;11.442;2023-04-06T06:41:55;1.10;97.30
14122;DHT22;7139;48.114;11.442;2023-04-06T06:44:22;1.20;97.20
14122;DHT22;7139;48.114;11.442;2023-04-06T06:46:48;1.30;97.50
14122;DHT22;7139;48.114;11.442;2023-04-06T06:49:16;1.50;97.70
14122;DHT22;7139;48.114;11.442;2023-04-06T06:51:44;1.70;97.00
14122;DHT22;7139;48.114;11.442;2023-04-06T06:54:11;1.80;96.90
14122;DHT22;7139;48.114;11.442;2023-04-06T06:56:38;1.90;97.10
14122;DHT22;7139;48.114;11.442;2023-04-06T06:59:05;2.00;97.10
14122;DHT22;7139;48.114;11.442;2023-04-06T07:01:32;2.10;97.00
14122;DHT22;7139;48.114;11.442;2023-04-06T07:04:00;2.20;96.90
14122;DHT22;7139;48.114;11.442;2023-04-06T07:06:28;2.30;97.00
14122;DHT22;7139;48.114;11.442;2023-04-06T07:08:54;2.40;96.90
14122;DHT22;7139;48.114;11.442;2023-04-06T07:11:21;2.50;96.90
14122;DHT22;7139;48.114;11.442;2023-04-06T07:13:48;2.60;97.10
14122;DHT22;7139;48.114;11.442;2023-04-06T07:16:15;2.70;97.20
14122;DHT22;7139;48.114;11.442;2023-04-06T07:18:41;2.80;97.30
14122;DHT22;7139;48.114;11.442;2023-04-06T07:21:08;2.90;96.90
14122;DHT22;7139;48.114;11.442;2023-04-06T07:23:36;3.10;96.90
14122;DHT22;7139;48.114;11.442;2023-04-06T07:26:03;3.20;96.00
14122;DHT22;7139;48.114;11.442;2023-04-06T07:28:30;3.40;96.00
14122;DHT22;7139;48.114;11.442;2023-04-06T07:30:57;3.60;96.20
14122;DHT22;7139;48.114;11.442;2023-04-06T07:33:23;3.70;96.00
14122;DHT22;7139;48.114;11.442;2023-04-06T07:35:52;3.80;95.50
14122;DHT22;7139;48.114;11.442;2023-04-06T07:38:19;4.00;96.00
14122;DHT22;7139;48.114;11.442;2023-04-06T07:40:47;4.10;95.70
14122;DHT22;7139;48.114;11.442;2023-04-06T07:43:14;4.10;95.40
14122;DHT22;7139;48.114;11.442;2023-04-06T07:45:41;4.20;94.90
14122;DHT22;7139;48.114;11.442;2023-04-06T07:48:08;4.30;95.00
14122;DHT22;7139;48.114;11.442;2023-04-06T07:50:35;4.50;94.90
14122;DHT22;7139;48.114;11.442;2023-04-06T07:53:02;4.70;94.80
14122;DHT22;7139;48.114;11.442;2023-04-06T07:55:28;5.00;94.50
14122;DHT22;7139;48.114;11.442;2023-04-06T07:57:57;5.20;92.60
14122;DHT22;7139;48.114;11.442;2023-04-06T08:00:24;5.30;93.00
14122;DHT22;7139;48.114;11.442;2023-04-06T08:02:50;5.50;93.50
14122;DHT22;7139;48.114;11.442;2023-04-06T08:05:17;5.60;93.20
14122;DHT22;7139;48.114;11.442;2023-04-06T08:07:44;5.70;92.00
14122;DHT22;7139;48.114;11.442;2023-04-06T08:10:11;6.00;90.90
14122;DHT22;7139;48.114;11.442;2023-04-06T08:12:37;6.30;90.50
14122;DHT22;7139;48.114;11.442;2023-04-06T08:15:06;6.70;90.00
14122;DHT22;7139;48.114;11.442;2023-04-06T08:17:33;7.00;89.50
14122;DHT22;7139;48.114;11.442;2023-04-06T08:20:00;7.10;88.20
14122;DHT22;7139;48.114;11.442;2023-04-06T08:22:28;7.20;80.20
14122;DHT22;7139;48.114;11.442;2023-04-06T08:24:55;7.20;79.80
14122;DHT22;7139;48.114;11.442;2023-04-06T08:27:22;7.20;78.70
14122;DHT22;7139;48.114;11.442;2023-04-06T08:29:49;7.30;80.30
14122;DHT22;7139;48.114;11.442;2023-04-06T08:32:17;7.40;81.70
14122;DHT22;7139;48.114;11.442;2023-04-06T08:34:44;7.60;84.50
14122;DHT22;7139;48.114;11.442;2023-04-06T08:37:10;7.90;86.20
14122;DHT22;7139;48.114;11.442;2023-04-06T08:39:37;8.30;79.60
14122;DHT22;7139;48.114;11.442;2023-04-06T08:42:04;8.50;76.90
14122;DHT22;7139;48.114;11.442;2023-04-06T08:44:36;8.90;78.50
14122;DHT22;7139;48.114;11.442;2023-04-06T08:47:04;9.20;75.70
14122;DHT22;7139;48.114;11.442;2023-04-06T08:49:33;9.50;78.30
14122;DHT22;7139;48.114;11.442;2023-04-06T08:52:01;9.80;76.70
14122;DHT22;7139;48.114;11.442;2023-04-06T08:54:27;10.10;74.80
14122;DHT22;7139;48.114;11.442;2023-04-06T08:56:55;10.30;72.50
14122;DHT22;7139;48.114;11.442;2023-04-06T08:59:23;10.50;68.80
14122;DHT22;7139;48.114;11.442;2023-04-06T09:01:51;10.60;68.30
14122;DHT22;7139;48.114;11.442;2023-04-06T09:04:19;10.60;69.40
14122;DHT22;7139;48.114;11.442;2023-04-06T09:06:47;10.80;67.30
14122;DHT22;7139;48.114;11.442;2023-04-06T09:09:15;10.80;62.80
14122;DHT22;7139;48.114;11.442;2023-04-06T09:11:46;10.70;65.70
14122;DHT22;7139;48.114;11.442;2023-04-06T09:14:14;10.60;67.10
14122;DHT22;7139;48.114;11.442;2023-04-06T09:16:42;10.60;68.50
14122;DHT22;7139;48.114;11.442;2023-04-06T09:19:11;10.70;67.10
14122;DHT22;7139;48.114;11.442;2023-04-06T09:21:38;10.70;67.00
14122;DHT22;7139;48.114;11.442;2023-04-06T09:24:09;10.80;68.10
14122;DHT22;7139;48.114;11.442;2023-04-06T09:26:45;11.00;67.00
14122;DHT22;7139;48.114;11.442;2023-04-06T09:29:22;11.30;66.00
14122;DHT22;7139;48.114;11.442;2023-04-06T09:31:51;11.60;68.40
14122;DHT22;7139;48.114;11.442;2023-04-06T09:34:21;11.80;65.30
14122;DHT22;7139;48.114;11.442;2023-04-06T09:36:49;12.00;64.20
14122;DHT22;7139;48.114;11.442;2023-04-06T09:39:20;12.40;66.30
14122;DHT22;7139;48.114;11.442;2023-04-06T09:41:50;12.50;61.70
14122;DHT22;7139;48.114;11.442;2023-04-06T09:44:17;12.60;64.00
14122;DHT22;7139;48.114;11.442;2023-04-06T09:46:45;12.90;64.30
14122;DHT22;7139;48.114;11.442;2023-04-06T09:49:13;12.70;59.50
14122;DHT22;7139;48.114;11.442;2023-04-06T09:51:41;12.50;62.00
14122;DHT22;7139;48.114;11.442;2023-04-06T09:54:09;12.10;58.90
14122;DHT22;7139;48.114;11.442;2023-04-06T09:56:43;12.10;60.80
14122;DHT22;7139;48.114;11.442;2023-04-06T09:59:14;12.10;59.80
14122;DHT22;7139;48.114;11.442;2023-04-06T10:01:46;12.40;62.00
14122;DHT22;7139;48.114;11.442;2023-04-06T10:04:23;12.60;60.60
14122;DHT22;7139;48.114;11.442;2023-04-06T10:06:52;12.50;59.30
14122;DHT22;7139;48.114;11.442;2023-04-06T10:09:21;12.40;59.40
14122;DHT22;7139;48.114;11.442;2023-04-06T10:11:51;12.10;60.00
14122;DHT22;7139;48.114;11.442;2023-04-06T10:14:18;11.50;60.00
14122;DHT22;7139;48.114;11.442;2023-04-06T10:16:45;11.30;63.10
14122;DHT22;7139;48.114;11.442;2023-04-06T10:19:16;11.10;62.70
14122;DHT22;7139;48.114;11.442;2023-04-06T10:21:45;11.10;62.30
14122;DHT22;7139;48.114;11.442;2023-04-06T10:24:13;10.90;62.10
14122;DHT22;7139;48.114;11.442;2023-04-06T10:26:40;10.80;62.10
14122;DHT22;7139;48.114;11.442;2023-04-06T10:29:08;10.70;62.70
14122;DHT22;7139;48.114;11.442;2023-04-06T10:31:41;10.60;63.60
14122;DHT22;7139;48.114;11.442;2023-04-06T10:34:08;10.70;64.10
14122;DHT22;7139;48.114;11.442;2023-04-06T10:36:35;11.00;64.20
14122;DHT22;7139;48.114;11.442;2023-04-06T10:39:03;11.20;63.20
14122;DHT22;7139;48.114;11.442;2023-04-06T10:41:35;11.30;61.30
14122;DHT22;7139;48.114;11.442;2023-04-06T10:44:02;11.20;61.10
14122;DHT22;7139;48.114;11.442;2023-04-06T10:46:32;11.20;61.20
14122;DHT22;7139;48.114;11.442;2023-04-06T10:49:10;11.10;62.50
14122;DHT22;7139;48.114;11.442;2023-04-06T10:51:38;11.00;64.30
14122;DHT22;7139;48.114;11.442;2023-04-06T10:54:06;10.90;62.00
14122;DHT22;7139;48.114;11.442;2023-04-06T10:56:36;11.10;62.50
14122;DHT22;7139;48.114;11.442;2023-04-06T10:59:05;11.10;61.70
14122;DHT22;7139;48.114;11.442;2023-04-06T11:01:33;10.80;63.10
14122;DHT22;7139;48.114;11.442;2023-04-06T11:04:00;10.80;64.30
14122;DHT22;7139;48.114;11.442;2023-04-06T11:06:29;10.70;63.30
14122;DHT22;7139;48.114;11.442;2023-04-06T11:08:58;10.80;63.30
14122;DHT22;7139;48.114;11.442;2023-04-06T11:11:25;11.00;64.40
14122;DHT22;7139;48.114;11.442;2023-04-06T11:13:53;11.30;63.70
14122;DHT22;7139;48.114;11.442;2023-04-06T11:16:22;11.50;60.30
14122;DHT22;7139;48.114;11.442;2023-04-06T11:18:52;11.30;61.50
14122;DHT22;7139;48.114;11.442;2023-04-06T11:21:20;10.90;59.80
14122;DHT22;7139;48.114;11.442;2023-04-06T11:23:47;10.80;60.60
14122;DHT22;7139;48.114;11.442;2023-04-06T11:26:14;10.80;60.00
14122;DHT22;7139;48.114;11.442;2023-04-06T11:28:41;10.70;59.80
14122;DHT22;7139;48.114;11.442;2023-04-06T11:31:09;10.50;61.90
14122;DHT22;7139;48.114;11.442;2023-04-06T11:33:36;10.40;62.60
14122;DHT22;7139;48.114;11.442;2023-04-06T11:36:05;10.30;64.30
14122;DHT22;7139;48.114;11.442;2023-04-06T11:38:33;10.30;64.60
14122;DHT22;7139;48.114;11.442;2023-04-06T11:41:01;10.40;64.30
14122;DHT22;7139;48.114;11.442;2023-04-06T11:43:28;10.30;64.00
14122;DHT22;7139;48.114;11.442;2023-04-06T11:46:02;10.20;63.70
14122;DHT22;7139;48.114;11.442;2023-04-06T11:48:29;10.20;63.00
14122;DHT22;7139;48.114;11.442;2023-04-06T11:50:56;10.50;65.60
14122;DHT22;7139;48.114;11.442;2023-04-06T11:53:25;10.50;62.10
14122;DHT22;7139;48.114;11.442;2023-04-06T11:55:52;10.60;62.70
14122;DHT22;7139;48.114;11.442;2023-04-06T11:58:19;10.80;62.00
14122;DHT22;7139;48.114;11.442;2023-04-06T12:00:46;11.10;61.60
14122;DHT22;7139;48.114;11.442;2023-04-06T12:03:12;11.50;61.80
14122;DHT22;7139;48.114;11.442;2023-04-06T12:05:39;11.80;60.40
14122;DHT22;7139;48.114;11.442;2023-04-06T12:08:06;12.10;59.80
14122;DHT22;7139;48.114;11.442;2023-04-06T12:10:34;12.40;59.40
14122;DHT22;7139;48.114;11.442;2023-04-06T12:13:01;12.60;57.90
14122;DHT22;7139;48.114;11.442;2023-04-06T12:15:28;12.90;56.20
14122;DHT22;7139;48.114;11.442;2023-04-06T12:17:54;13.10;55.90
14122;DHT22;7139;48.114;11.442;2023-04-06T12:20:21;13.20;56.40
14122;DHT22;7139;48.114;11.442;2023-04-06T12:22:48;13.20;55.30
14122;DHT22;7139;48.114;11.442;2023-04-06T12:25:15;13.40;54.20
14122;DHT22;7139;48.114;11.442;2023-04-06T12:27:43;13.90;55.00
14122;DHT22;7139;48.114;11.442;2023-04-06T12:30:10;14.30;54.50
14122;DHT22;7139;48.114;11.442;2023-04-06T12:32:37;14.00;53.20
14122;DHT22;7139;48.114;11.442;2023-04-06T12:35:04;14.20;53.50
14122;DHT22;7139;48.114;11.442;2023-04-06T12:37:31;14.20;53.00
14122;DHT22;7139;48.114;11.442;2023-04-06T12:39:58;14.30;54.50
14122;DHT22;7139;48.114;11.442;2023-04-06T12:42:25;14.50;54.00
14122;DHT22;7139;48.114;11.442;2023-04-06T12:44:53;14.70;52.60
14122;DHT22;7139;48.114;11.442;2023-04-06T12:47:20;14.90;51.50
14122;DHT22;7139;48.114;11.442;2023-04-06T12:49:48;15.00;52.90
14122;DHT22;7139;48.114;11.442;2023-04-06T12:52:15;14.90;52.50
14122;DHT22;7139;48.114;11.442;2023-04-06T12:54:42;14.70;51.30
14122;DHT22;7139;48.114;11.442;2023-04-06T12:57:09;14.50;52.40
14122;DHT22;7139;48.114;11.442;2023-04-06T12:59:36;14.30;51.70
14122;DHT22;7139;48.114;11.442;2023-04-06T13:02:04;14.30;51.70
14122;DHT22;7139;48.114;11.442;2023-04-06T13:04:31;14.20;51.70
14122;DHT22;7139;48.114;11.442;2023-04-06T13:06:58;14.10;52.70
14122;DHT22;7139;48.114;11.442;2023-04-06T13:09:25;13.90;52.90
14122;DHT22;7139;48.114;11.442;2023-04-06T13:11:52;13.50;53.20
14122;DHT22;7139;48.114;11.442;2023-04-06T13:14:18;13.40;53.80
14122;DHT22;7139;48.114;11.442;2023-04-06T13:16:46;13.30;54.00
14122;DHT22;7139;48.114;11.442;2023-04-06T13:19:14;13.20;56.00
14122;DHT22;7139;48.114;11.442;2023-04-06T13:21:41;13.30;56.80
14122;DHT22;7139;48.114;11.442;2023-04-06T13:24:08;13.40;55.50
14122;DHT22;7139;48.114;11.442;2023-04-06T13:26:35;13.40;54.70
14122;DHT22;7139;48.114;11.442;2023-04-06T13:29:02;13.40;54.80
14122;DHT22;7139;48.114;11.442;2023-04-06T13:31:29;13.50;53.80
14122;DHT22;7139;48.114;11.442;2023-04-06T13:33:56;13.60;52.70
14122;DHT22;7139;48.114;11.442;2023-04-06T13:36:24;13.70;52.70
14122;DHT22;7139;48.114;11.442;2023-04-06T13:38:52;13.80;52.50
14122;DHT22;7139;48.114;11.442;2023-04-06T13:41:22;13.70;52.60
14122;DHT22;7139;48.114;11.442;2023-04-06T13:43:49;13.70;52.00
14122;DHT22;7139;48.114;11.442;2023-04-06T13:46:15;13.70;52.00
14122;DHT22;7139;48.114;11.442;2023-04-06T13:48:43;13.70;51.20
14122;DHT22;7139;48.114;11.442;2023-04-06T13:51:10;13.50;52.20
14122;DHT22;7139;48.114;11.442;2023-04-06T13:53:39;13.20;54.30
14122;DHT22;7139;48.114;11.442;2023-04-06T13:56:06;12.80;55.10
14122;DHT22;7139;48.114;11.442;2023-04-06T13:58:33;12.90;56.80
14122;DHT22;7139;48.114;11.442;2023-04-06T14:01:04;12.90;55.40
14122;DHT22;7139;48.114;11.442;2023-04-06T14:03:32;13.10;56.70
14122;DHT22;7139;48.114;11.442;2023-04-06T14:05:59;13.20;55.90
14122;DHT22;7139;48.114;11.442;2023-04-06T14:08:26;13.10;54.60
14122;DHT22;7139;48.114;11.442;2023-04-06T14:10:54;13.30;54.60
14122;DHT22;7139;48.114;11.442;2023-04-06T14:13:21;13.40;53.20
14122;DHT22;7139;48.114;11.442;2023-04-06T14:15:53;13.60;54.30
14122;DHT22;7139;48.114;11.442;2023-04-06T14:18:20;13.70;55.90
14122;DHT22;7139;48.114;11.442;2023-04-06T14:20:53;13.80;55.10
14122;DHT22;7139;48.114;11.442;2023-04-06T14:23:20;13.90;55.00
14122;DHT22;7139;48.114;11.442;2023-04-06T14:25:47;14.00;58.50
14122;DHT22;7139;48.114;11.442;2023-04-06T14:28:15;14.40;57.50
14122;DHT22;7139;48.114;11.442;2023-04-06T14:30:43;14.60;57.50
14122;DHT22;7139;48.114;11.442;2023-04-06T14:33:09;14.70;54.10
14122;DHT22;7139;48.114;11.442;2023-04-06T14:35:38;14.40;52.40
14122;DHT22;7139;48.114;11.442;2023-04-06T14:38:05;13.80;52.90
14122;DHT22;7139;48.114;11.442;2023-04-06T14:40:34;13.30;52.90
14122;DHT22;7139;48.114;11.442;2023-04-06T14:43:02;12.90;54.30
14122;DHT22;7139;48.114;11.442;2023-04-06T14:45:33;12.80;53.50
14122;DHT22;7139;48.114;11.442;2023-04-06T14:47:59;12.70;53.60
14122;DHT22;7139;48.114;11.442;2023-04-06T14:50:26;12.60;53.30
14122;DHT22;7139;48.114;11.442;2023-04-06T14:52:53;12.70;54.80
14122;DHT22;7139;48.114;11.442;2023-04-06T14:55:20;12.70;55.10
14122;DHT22;7139;48.114;11.442;2023-04-06T14:57:47;12.70;55.10
14122;DHT22;7139;48.114;11.442;2023-04-06T15:00:14;12.70;54.60
14122;DHT22;7139;48.114;11.442;2023-04-06T15:02:42;12.70;54.40
14122;DHT22;7139;48.114;11.442;2023-04-06T15:05:09;12.50;53.80
14122;DHT22;7139;48.114;11.442;2023-04-06T15:07:36;12.40;53.10
14122;DHT22;7139;48.114;11.442;2023-04-06T15:10:04;12.30;52.70
14122;DHT22;7139;48.114;11.442;2023-04-06T15:12:31;12.40;54.80
14122;DHT22;7139;48.114;11.442;2023-04-06T15:14:58;12.60;53.00
14122;DHT22;7139;48.114;11.442;2023-04-06T15:17:26;12.80;53.20
14122;DHT22;7139;48.114;11.442;2023-04-06T15:19:54;12.90;54.50
14122;DHT22;7139;48.114;11.442;2023-04-06T15:22:21;13.10;54.40
14122;DHT22;7139;48.114;11.442;2023-04-06T15:24:47;13.20;52.80
14122;DHT22;7139;48.114;11.442;2023-04-06T15:27:14;13.30;52.30
14122;DHT22;7139;48.114;11.442;2023-04-06T15:29:41;13.20;51.60
14122;DHT22;7139;48.114;11.442;2023-04-06T15:32:08;13.20;52.80
14122;DHT22;7139;48.114;11.442;2023-04-06T15:34:34;13.10;52.70
14122;DHT22;7139;48.114;11.442;2023-04-06T15:37:02;12.80;53.50
14122;DHT22;7139;48.114;11.442;2023-04-06T15:39:30;12.60;52.80